Aérodrome :
LOGIN :

S'inscrire | Disclaimer

   EN    FR    IT 

 










Légende :    VFR   VFR Marginal   IFR   IFR Intensif   IFR Très Intensif
Visi : 
Plafond : 
>= 8 km
>= 3000ft
5 à 8 km
1000 à 3000 ft
1500m à 5 km
500 à 1000 ft
800 à 1500m
200 à 500 ft
< 800m
< 200 ft
Symboles :   Orages  Brouillard  Fortes neiges  Fortes précipitations  Vent > 20 kt
SIGMETs :   Divers  Orages  Givrage  Turbulence  Onde Orograph.  Cendres Volcan.







- Altitude de l'aérodrome : 100 ft


EBDT - Schaffen

DERNIER METAR :
  • 160608Z 17004KT 9999 SCT130 BKN210 10/09 Q1018 BLU BLU

METARs EXPIRÉS :
  • 160555Z 18004KT 8000 SCT130 BKN210 10/09 Q1017 BLU BLU TEMPO WHT
  • 160525Z 17004KT 8000 SCT210 10/09 Q1017 BLU BLU TEMPO WHT
  • 160455Z 15003KT 8000 BKN210 10/09 Q1017 BLU BLU TEMPO WHT
  • 160425Z 15003KT 8000 SCT230 10/09 Q1017 BLU BLU TEMPO WHT
  • 160355Z VRB02KT 8000 FEW250 10/09 Q1017 BLU BLU TEMPO WHT
  • 160338Z 23004KT 8000 SKC 10/09 Q1017 BLU BLU TEMPO WHT
  • 160325Z AUTO 16003KT 7000 BKN220/// 10/09 Q1017 WHT

TAF TAF EBDT
Valide du 15 à 19h jusqu'au 16 à 07h UTC


151541Z 1519/1607 17005KT 9999 SCT120
PROB30
TEMPO 1522/2307 6000
Pas de NOTAMs connus pour ce terrain.



MET'MAP, la Météo Aéronautique d'un coup d'oeil ! - Copyright ORBIFLY Décembre 2007 - Disclaimer

ORBIFLY MET'MAP TEAM :

Programmation & Développement : Alexandra Zaïnal
Conception & Développement : Baudouin d'Aumeries
Co-Programmation & Développement : Marc-Olivier Méhu
Soutien technique & logistique : Manuel Goepfert

Contact : metmap@orbifly.com




SOURCES & CREDITS :

   NOAA